sensor_id;sensor_type;location;lat;lon;timestamp;P1;durP1;ratioP1;P2;durP2;ratioP2
54787;SDS011;59598;48.112;16.280;2023-05-07T00:00:50;1.50;;;1.38;;
54787;SDS011;59598;48.112;16.280;2023-05-07T00:03:25;1.77;;;1.65;;
54787;SDS011;59598;48.112;16.280;2023-05-07T00:06:02;2.58;;;1.50;;
54787;SDS011;59598;48.112;16.280;2023-05-07T00:08:33;1.60;;;1.50;;
54787;SDS011;59598;48.112;16.280;2023-05-07T00:11:05;3.95;;;1.73;;
54787;SDS011;59598;48.112;16.280;2023-05-07T00:13:41;1.30;;;1.20;;
54787;SDS011;59598;48.112;16.280;2023-05-07T00:16:15;1.45;;;1.35;;
54787;SDS011;59598;48.112;16.280;2023-05-07T00:18:51;1.38;;;1.27;;
54787;SDS011;59598;48.112;16.280;2023-05-07T00:21:24;1.52;;;1.42;;
54787;SDS011;59598;48.112;16.280;2023-05-07T00:26:34;1.20;;;1.10;;
54787;SDS011;59598;48.112;16.280;2023-05-07T00:29:11;2.10;;;1.10;;
54787;SDS011;59598;48.112;16.280;2023-05-07T00:31:43;1.40;;;1.30;;
54787;SDS011;59598;48.112;16.280;2023-05-07T00:34:16;1.27;;;1.20;;
54787;SDS011;59598;48.112;16.280;2023-05-07T00:36:54;1.35;;;1.25;;
54787;SDS011;59598;48.112;16.280;2023-05-07T00:39:30;1.45;;;1.35;;
54787;SDS011;59598;48.112;16.280;2023-05-07T00:42:07;1.30;;;1.20;;
54787;SDS011;59598;48.112;16.280;2023-05-07T00:44:45;1.20;;;1.10;;
54787;SDS011;59598;48.112;16.280;2023-05-07T00:47:17;1.35;;;1.25;;
54787;SDS011;59598;48.112;16.280;2023-05-07T00:49:49;1.52;;;1.20;;
54787;SDS011;59598;48.112;16.280;2023-05-07T00:52:21;1.33;;;1.23;;
54787;SDS011;59598;48.112;16.280;2023-05-07T00:55:01;1.40;;;1.30;;
54787;SDS011;59598;48.112;16.280;2023-05-07T00:57:37;0.98;;;0.98;;
54787;SDS011;59598;48.112;16.280;2023-05-07T01:00:12;1.33;;;1.23;;
54787;SDS011;59598;48.112;16.280;2023-05-07T01:02:44;1.48;;;1.38;;
54787;SDS011;59598;48.112;16.280;2023-05-07T01:05:17;2.13;;;1.92;;
54787;SDS011;59598;48.112;16.280;2023-05-07T01:08:08;1.50;;;1.40;;
54787;SDS011;59598;48.112;16.280;2023-05-07T01:10:41;1.40;;;1.30;;
54787;SDS011;59598;48.112;16.280;2023-05-07T01:13:16;1.42;;;1.10;;
54787;SDS011;59598;48.112;16.280;2023-05-07T01:15:52;1.20;;;1.10;;
54787;SDS011;59598;48.112;16.280;2023-05-07T01:18:24;1.35;;;1.25;;
54787;SDS011;59598;48.112;16.280;2023-05-07T01:20:58;1.35;;;1.25;;
54787;SDS011;59598;48.112;16.280;2023-05-07T01:23:30;1.58;;;1.48;;
54787;SDS011;59598;48.112;16.280;2023-05-07T01:26:09;1.30;;;1.27;;
54787;SDS011;59598;48.112;16.280;2023-05-07T01:28:46;1.65;;;1.55;;
54787;SDS011;59598;48.112;16.280;2023-05-07T01:31:20;1.33;;;1.23;;
54787;SDS011;59598;48.112;16.280;2023-05-07T01:33:55;1.27;;;1.27;;
54787;SDS011;59598;48.112;16.280;2023-05-07T01:36:30;1.40;;;1.33;;
54787;SDS011;59598;48.112;16.280;2023-05-07T01:39:03;1.63;;;1.52;;
54787;SDS011;59598;48.112;16.280;2023-05-07T01:41:36;1.40;;;1.30;;
54787;SDS011;59598;48.112;16.280;2023-05-07T01:44:14;1.88;;;1.30;;
54787;SDS011;59598;48.112;16.280;2023-05-07T01:46:47;3.70;;;1.30;;
54787;SDS011;59598;48.112;16.280;2023-05-07T01:49:20;1.70;;;1.60;;
54787;SDS011;59598;48.112;16.280;2023-05-07T01:51:52;1.70;;;1.60;;
54787;SDS011;59598;48.112;16.280;2023-05-07T01:54:25;1.67;;;1.55;;
54787;SDS011;59598;48.112;16.280;2023-05-07T01:57:00;1.45;;;1.35;;
54787;SDS011;59598;48.112;16.280;2023-05-07T01:59:36;1.35;;;1.25;;
54787;SDS011;59598;48.112;16.280;2023-05-07T02:02:11;1.27;;;1.17;;
54787;SDS011;59598;48.112;16.280;2023-05-07T02:04:45;1.73;;;1.63;;
54787;SDS011;59598;48.112;16.280;2023-05-07T02:07:22;2.70;;;1.55;;
54787;SDS011;59598;48.112;16.280;2023-05-07T02:09:56;4.65;;;1.60;;
54787;SDS011;59598;48.112;16.280;2023-05-07T02:12:30;1.65;;;1.55;;
54787;SDS011;59598;48.112;16.280;2023-05-07T02:15:02;1.85;;;1.42;;
54787;SDS011;59598;48.112;16.280;2023-05-07T02:17:39;1.95;;;1.50;;
54787;SDS011;59598;48.112;16.280;2023-05-07T02:20:39;1.83;;;1.73;;
54787;SDS011;59598;48.112;16.280;2023-05-07T02:23:14;2.03;;;1.42;;
54787;SDS011;59598;48.112;16.280;2023-05-07T02:28:23;1.98;;;1.40;;
54787;SDS011;59598;48.112;16.280;2023-05-07T02:30:54;1.20;;;1.10;;
54787;SDS011;59598;48.112;16.280;2023-05-07T02:33:26;1.35;;;1.25;;
54787;SDS011;59598;48.112;16.280;2023-05-07T02:36:11;1.50;;;1.40;;
54787;SDS011;59598;48.112;16.280;2023-05-07T02:38:50;1.55;;;1.30;;
54787;SDS011;59598;48.112;16.280;2023-05-07T02:41:26;1.88;;;1.75;;
54787;SDS011;59598;48.112;16.280;2023-05-07T02:44:03;1.98;;;1.88;;
54787;SDS011;59598;48.112;16.280;2023-05-07T02:46:40;2.47;;;2.28;;
54787;SDS011;59598;48.112;16.280;2023-05-07T02:49:12;1.60;;;1.50;;
54787;SDS011;59598;48.112;16.280;2023-05-07T02:51:46;1.92;;;1.75;;
54787;SDS011;59598;48.112;16.280;2023-05-07T02:54:17;2.13;;;1.92;;
54787;SDS011;59598;48.112;16.280;2023-05-07T02:56:49;2.15;;;2.00;;
54787;SDS011;59598;48.112;16.280;2023-05-07T02:59:24;2.17;;;1.98;;
54787;SDS011;59598;48.112;16.280;2023-05-07T03:02:02;2.20;;;1.98;;
54787;SDS011;59598;48.112;16.280;2023-05-07T03:04:39;2.55;;;2.35;;
54787;SDS011;59598;48.112;16.280;2023-05-07T03:07:12;2.33;;;2.13;;
54787;SDS011;59598;48.112;16.280;2023-05-07T03:09:45;3.15;;;2.22;;
54787;SDS011;59598;48.112;16.280;2023-05-07T03:12:17;3.60;;;2.78;;
54787;SDS011;59598;48.112;16.280;2023-05-07T03:14:51;4.35;;;2.55;;
54787;SDS011;59598;48.112;16.280;2023-05-07T03:17:23;2.60;;;2.40;;
54787;SDS011;59598;48.112;16.280;2023-05-07T03:19:59;4.55;;;3.90;;
54787;SDS011;59598;48.112;16.280;2023-05-07T03:22:34;3.40;;;2.67;;
54787;SDS011;59598;48.112;16.280;2023-05-07T03:25:11;3.45;;;2.83;;
54787;SDS011;59598;48.112;16.280;2023-05-07T03:27:44;4.80;;;2.80;;
54787;SDS011;59598;48.112;16.280;2023-05-07T03:30:16;3.35;;;2.72;;
54787;SDS011;59598;48.112;16.280;2023-05-07T03:32:55;4.43;;;3.33;;
54787;SDS011;59598;48.112;16.280;2023-05-07T03:35:28;4.43;;;3.10;;
54787;SDS011;59598;48.112;16.280;2023-05-07T03:38:04;4.75;;;3.97;;
54787;SDS011;59598;48.112;16.280;2023-05-07T03:40:38;4.05;;;3.38;;
54787;SDS011;59598;48.112;16.280;2023-05-07T03:43:09;5.30;;;3.40;;
54787;SDS011;59598;48.112;16.280;2023-05-07T03:45:45;5.95;;;3.03;;
54787;SDS011;59598;48.112;16.280;2023-05-07T03:48:19;3.92;;;3.42;;
54787;SDS011;59598;48.112;16.280;2023-05-07T03:50:56;5.75;;;3.58;;
54787;SDS011;59598;48.112;16.280;2023-05-07T03:53:29;4.13;;;3.07;;
54787;SDS011;59598;48.112;16.280;2023-05-07T03:56:00;4.72;;;3.90;;
54787;SDS011;59598;48.112;16.280;2023-05-07T03:58:32;4.65;;;3.53;;
54787;SDS011;59598;48.112;16.280;2023-05-07T04:01:04;4.68;;;2.90;;
54787;SDS011;59598;48.112;16.280;2023-05-07T04:03:42;5.47;;;4.60;;
54787;SDS011;59598;48.112;16.280;2023-05-07T04:06:17;4.53;;;3.47;;
54787;SDS011;59598;48.112;16.280;2023-05-07T04:08:52;5.70;;;4.53;;
54787;SDS011;59598;48.112;16.280;2023-05-07T04:11:23;7.35;;;4.22;;
54787;SDS011;59598;48.112;16.280;2023-05-07T04:13:59;5.47;;;4.10;;
54787;SDS011;59598;48.112;16.280;2023-05-07T04:16:32;8.05;;;5.53;;
54787;SDS011;59598;48.112;16.280;2023-05-07T04:19:06;6.57;;;5.18;;
54787;SDS011;59598;48.112;16.280;2023-05-07T04:21:40;5.75;;;5.20;;
54787;SDS011;59598;48.112;16.280;2023-05-07T04:24:14;9.27;;;5.55;;
54787;SDS011;59598;48.112;16.280;2023-05-07T04:26:51;6.35;;;5.60;;
54787;SDS011;59598;48.112;16.280;2023-05-07T04:29:32;6.00;;;4.97;;
54787;SDS011;59598;48.112;16.280;2023-05-07T04:32:09;6.43;;;5.13;;
54787;SDS011;59598;48.112;16.280;2023-05-07T04:34:43;6.90;;;5.00;;
54787;SDS011;59598;48.112;16.280;2023-05-07T04:37:18;6.38;;;5.35;;
54787;SDS011;59598;48.112;16.280;2023-05-07T04:39:54;8.10;;;6.32;;
54787;SDS011;59598;48.112;16.280;2023-05-07T04:42:27;6.95;;;5.40;;
54787;SDS011;59598;48.112;16.280;2023-05-07T04:45:00;9.15;;;5.20;;
54787;SDS011;59598;48.112;16.280;2023-05-07T04:47:33;7.68;;;5.80;;
54787;SDS011;59598;48.112;16.280;2023-05-07T04:50:07;7.72;;;5.55;;
54787;SDS011;59598;48.112;16.280;2023-05-07T04:52:41;7.32;;;5.03;;
54787;SDS011;59598;48.112;16.280;2023-05-07T04:55:13;8.40;;;5.05;;
54787;SDS011;59598;48.112;16.280;2023-05-07T04:57:46;8.02;;;4.75;;
54787;SDS011;59598;48.112;16.280;2023-05-07T05:00:19;7.35;;;5.25;;
54787;SDS011;59598;48.112;16.280;2023-05-07T05:02:55;8.15;;;6.38;;
54787;SDS011;59598;48.112;16.280;2023-05-07T05:05:27;9.63;;;6.60;;
54787;SDS011;59598;48.112;16.280;2023-05-07T05:08:03;6.22;;;5.10;;
54787;SDS011;59598;48.112;16.280;2023-05-07T05:10:35;5.88;;;4.95;;
54787;SDS011;59598;48.112;16.280;2023-05-07T05:13:07;7.88;;;5.50;;
54787;SDS011;59598;48.112;16.280;2023-05-07T05:15:43;7.30;;;5.70;;
54787;SDS011;59598;48.112;16.280;2023-05-07T05:18:15;9.50;;;5.53;;
54787;SDS011;59598;48.112;16.280;2023-05-07T05:20:46;11.35;;;6.82;;
54787;SDS011;59598;48.112;16.280;2023-05-07T05:23:20;9.20;;;6.07;;
54787;SDS011;59598;48.112;16.280;2023-05-07T05:25:57;8.45;;;6.57;;
54787;SDS011;59598;48.112;16.280;2023-05-07T05:28:29;8.63;;;5.35;;
54787;SDS011;59598;48.112;16.280;2023-05-07T05:31:06;7.32;;;5.45;;
54787;SDS011;59598;48.112;16.280;2023-05-07T05:33:40;10.13;;;6.80;;
54787;SDS011;59598;48.112;16.280;2023-05-07T05:36:12;8.60;;;5.93;;
54787;SDS011;59598;48.112;16.280;2023-05-07T05:38:46;9.15;;;5.95;;
54787;SDS011;59598;48.112;16.280;2023-05-07T05:41:18;10.60;;;7.15;;
54787;SDS011;59598;48.112;16.280;2023-05-07T05:43:49;9.40;;;5.72;;
54787;SDS011;59598;48.112;16.280;2023-05-07T05:48:55;9.82;;;5.68;;
54787;SDS011;59598;48.112;16.280;2023-05-07T05:51:30;9.13;;;6.05;;
54787;SDS011;59598;48.112;16.280;2023-05-07T05:54:04;11.02;;;6.97;;
54787;SDS011;59598;48.112;16.280;2023-05-07T05:56:43;12.45;;;7.20;;
54787;SDS011;59598;48.112;16.280;2023-05-07T05:59:22;9.65;;;6.35;;
54787;SDS011;59598;48.112;16.280;2023-05-07T06:01:59;9.55;;;7.10;;
54787;SDS011;59598;48.112;16.280;2023-05-07T06:04:32;9.57;;;6.90;;
54787;SDS011;59598;48.112;16.280;2023-05-07T06:07:03;9.45;;;7.20;;
54787;SDS011;59598;48.112;16.280;2023-05-07T06:09:38;9.05;;;5.97;;
54787;SDS011;59598;48.112;16.280;2023-05-07T06:14:46;10.07;;;6.70;;
54787;SDS011;59598;48.112;16.280;2023-05-07T06:17:21;12.95;;;7.97;;
54787;SDS011;59598;48.112;16.280;2023-05-07T06:19:53;13.48;;;9.65;;
54787;SDS011;59598;48.112;16.280;2023-05-07T06:22:27;13.77;;;8.95;;
54787;SDS011;59598;48.112;16.280;2023-05-07T06:24:59;11.18;;;8.65;;
54787;SDS011;59598;48.112;16.280;2023-05-07T06:27:33;10.70;;;6.95;;
54787;SDS011;59598;48.112;16.280;2023-05-07T06:30:05;11.82;;;8.02;;
54787;SDS011;59598;48.112;16.280;2023-05-07T06:32:40;12.65;;;8.73;;
54787;SDS011;59598;48.112;16.280;2023-05-07T06:35:12;11.07;;;8.15;;
54787;SDS011;59598;48.112;16.280;2023-05-07T06:37:48;11.65;;;7.95;;
54787;SDS011;59598;48.112;16.280;2023-05-07T06:40:29;12.63;;;7.85;;
54787;SDS011;59598;48.112;16.280;2023-05-07T06:43:10;12.43;;;7.68;;
54787;SDS011;59598;48.112;16.280;2023-05-07T06:45:43;11.02;;;7.70;;
54787;SDS011;59598;48.112;16.280;2023-05-07T06:48:15;11.68;;;7.55;;
54787;SDS011;59598;48.112;16.280;2023-05-07T06:50:46;12.30;;;7.43;;
54787;SDS011;59598;48.112;16.280;2023-05-07T06:53:18;13.52;;;8.18;;
54787;SDS011;59598;48.112;16.280;2023-05-07T06:55:49;14.70;;;8.23;;
54787;SDS011;59598;48.112;16.280;2023-05-07T06:58:23;12.32;;;7.70;;
54787;SDS011;59598;48.112;16.280;2023-05-07T07:00:58;11.55;;;8.90;;
54787;SDS011;59598;48.112;16.280;2023-05-07T07:03:35;9.15;;;7.22;;
54787;SDS011;59598;48.112;16.280;2023-05-07T07:06:10;11.00;;;7.25;;
54787;SDS011;59598;48.112;16.280;2023-05-07T07:08:47;10.88;;;7.63;;
54787;SDS011;59598;48.112;16.280;2023-05-07T07:11:25;12.38;;;7.22;;
54787;SDS011;59598;48.112;16.280;2023-05-07T07:14:00;11.95;;;7.63;;
54787;SDS011;59598;48.112;16.280;2023-05-07T07:16:36;9.85;;;7.13;;
54787;SDS011;59598;48.112;16.280;2023-05-07T07:19:10;10.65;;;7.28;;
54787;SDS011;59598;48.112;16.280;2023-05-07T07:21:45;11.85;;;7.18;;
54787;SDS011;59598;48.112;16.280;2023-05-07T07:24:17;10.07;;;6.90;;
54787;SDS011;59598;48.112;16.280;2023-05-07T07:29:23;9.63;;;7.03;;
54787;SDS011;59598;48.112;16.280;2023-05-07T07:31:57;10.73;;;7.63;;
54787;SDS011;59598;48.112;16.280;2023-05-07T07:34:31;12.50;;;6.78;;
54787;SDS011;59598;48.112;16.280;2023-05-07T07:37:02;11.88;;;7.32;;
54787;SDS011;59598;48.112;16.280;2023-05-07T07:39:36;9.57;;;6.78;;
54787;SDS011;59598;48.112;16.280;2023-05-07T07:42:10;10.35;;;7.85;;
54787;SDS011;59598;48.112;16.280;2023-05-07T07:44:44;10.32;;;7.10;;
54787;SDS011;59598;48.112;16.280;2023-05-07T07:47:19;8.88;;;6.70;;
54787;SDS011;59598;48.112;16.280;2023-05-07T07:49:50;12.27;;;7.78;;
54787;SDS011;59598;48.112;16.280;2023-05-07T07:52:24;9.10;;;7.50;;
54787;SDS011;59598;48.112;16.280;2023-05-07T07:54:59;10.07;;;7.47;;
54787;SDS011;59598;48.112;16.280;2023-05-07T07:57:35;9.40;;;7.63;;
54787;SDS011;59598;48.112;16.280;2023-05-07T08:02:49;13.18;;;7.32;;
54787;SDS011;59598;48.112;16.280;2023-05-07T08:05:22;9.80;;;6.72;;
54787;SDS011;59598;48.112;16.280;2023-05-07T08:07:56;9.18;;;6.75;;
54787;SDS011;59598;48.112;16.280;2023-05-07T08:10:29;10.15;;;6.80;;
54787;SDS011;59598;48.112;16.280;2023-05-07T08:13:04;12.50;;;7.45;;
54787;SDS011;59598;48.112;16.280;2023-05-07T08:15:36;12.20;;;7.35;;
54787;SDS011;59598;48.112;16.280;2023-05-07T08:18:10;9.75;;;6.95;;
54787;SDS011;59598;48.112;16.280;2023-05-07T08:20:45;10.18;;;7.10;;
54787;SDS011;59598;48.112;16.280;2023-05-07T08:23:17;8.40;;;6.13;;
54787;SDS011;59598;48.112;16.280;2023-05-07T08:25:54;8.98;;;6.45;;
54787;SDS011;59598;48.112;16.280;2023-05-07T08:28:26;10.80;;;7.40;;
54787;SDS011;59598;48.112;16.280;2023-05-07T08:30:57;8.88;;;6.40;;
54787;SDS011;59598;48.112;16.280;2023-05-07T08:33:31;10.45;;;6.88;;
54787;SDS011;59598;48.112;16.280;2023-05-07T08:36:02;10.48;;;6.38;;
54787;SDS011;59598;48.112;16.280;2023-05-07T08:38:40;11.68;;;6.78;;
54787;SDS011;59598;48.112;16.280;2023-05-07T08:41:16;11.45;;;7.70;;
54787;SDS011;59598;48.112;16.280;2023-05-07T08:43:51;8.70;;;6.70;;
54787;SDS011;59598;48.112;16.280;2023-05-07T08:46:25;9.95;;;7.00;;
54787;SDS011;59598;48.112;16.280;2023-05-07T08:49:06;7.95;;;5.75;;
54787;SDS011;59598;48.112;16.280;2023-05-07T08:51:41;7.82;;;6.05;;
54787;SDS011;59598;48.112;16.280;2023-05-07T08:56:50;7.60;;;5.75;;
54787;SDS011;59598;48.112;16.280;2023-05-07T08:59:22;8.38;;;6.18;;
54787;SDS011;59598;48.112;16.280;2023-05-07T09:01:53;8.90;;;5.78;;
54787;SDS011;59598;48.112;16.280;2023-05-07T09:04:27;7.72;;;5.78;;
54787;SDS011;59598;48.112;16.280;2023-05-07T09:06:59;6.82;;;5.32;;
54787;SDS011;59598;48.112;16.280;2023-05-07T09:09:36;9.80;;;6.20;;
54787;SDS011;59598;48.112;16.280;2023-05-07T09:12:08;8.27;;;5.78;;
54787;SDS011;59598;48.112;16.280;2023-05-07T09:14:40;7.30;;;5.07;;
54787;SDS011;59598;48.112;16.280;2023-05-07T09:17:17;9.48;;;6.22;;
54787;SDS011;59598;48.112;16.280;2023-05-07T09:19:51;9.23;;;5.30;;
54787;SDS011;59598;48.112;16.280;2023-05-07T09:22:29;9.48;;;6.07;;
54787;SDS011;59598;48.112;16.280;2023-05-07T09:25:04;8.60;;;5.38;;
54787;SDS011;59598;48.112;16.280;2023-05-07T09:27:45;9.02;;;6.45;;
54787;SDS011;59598;48.112;16.280;2023-05-07T09:30:16;7.63;;;5.47;;
54787;SDS011;59598;48.112;16.280;2023-05-07T09:32:50;7.32;;;5.22;;
54787;SDS011;59598;48.112;16.280;2023-05-07T09:35:22;9.35;;;5.57;;
54787;SDS011;59598;48.112;16.280;2023-05-07T09:37:58;9.93;;;5.82;;
54787;SDS011;59598;48.112;16.280;2023-05-07T09:40:36;8.93;;;5.13;;
54787;SDS011;59598;48.112;16.280;2023-05-07T09:43:13;6.75;;;5.45;;
54787;SDS011;59598;48.112;16.280;2023-05-07T09:45:45;6.18;;;4.65;;
54787;SDS011;59598;48.112;16.280;2023-05-07T09:48:22;7.10;;;5.00;;
54787;SDS011;59598;48.112;16.280;2023-05-07T09:50:55;7.22;;;5.53;;
54787;SDS011;59598;48.112;16.280;2023-05-07T09:53:30;11.07;;;5.10;;
54787;SDS011;59598;48.112;16.280;2023-05-07T09:56:04;6.35;;;4.85;;
54787;SDS011;59598;48.112;16.280;2023-05-07T09:58:36;8.45;;;5.20;;
54787;SDS011;59598;48.112;16.280;2023-05-07T10:01:12;8.00;;;5.10;;
54787;SDS011;59598;48.112;16.280;2023-05-07T10:03:44;6.90;;;4.97;;
54787;SDS011;59598;48.112;16.280;2023-05-07T10:06:17;7.82;;;4.97;;
54787;SDS011;59598;48.112;16.280;2023-05-07T10:08:56;7.20;;;4.68;;
54787;SDS011;59598;48.112;16.280;2023-05-07T10:11:34;6.55;;;4.82;;
54787;SDS011;59598;48.112;16.280;2023-05-07T10:14:06;6.80;;;5.05;;
54787;SDS011;59598;48.112;16.280;2023-05-07T10:16:39;7.85;;;5.07;;
54787;SDS011;59598;48.112;16.280;2023-05-07T10:19:14;4.75;;;3.53;;
54787;SDS011;59598;48.112;16.280;2023-05-07T10:21:55;5.28;;;4.43;;
54787;SDS011;59598;48.112;16.280;2023-05-07T10:24:33;7.97;;;5.22;;
54787;SDS011;59598;48.112;16.280;2023-05-07T10:32:53;6.70;;;5.35;;
54787;SDS011;59598;48.112;16.280;2023-05-07T10:35:29;6.18;;;4.10;;
54787;SDS011;59598;48.112;16.280;2023-05-07T10:38:07;8.57;;;5.13;;
54787;SDS011;59598;48.112;16.280;2023-05-07T10:40:43;5.13;;;3.80;;
54787;SDS011;59598;48.112;16.280;2023-05-07T10:43:15;8.27;;;4.47;;
54787;SDS011;59598;48.112;16.280;2023-05-07T10:51:33;6.55;;;4.57;;
54787;SDS011;59598;48.112;16.280;2023-05-07T10:56:43;6.15;;;3.80;;
54787;SDS011;59598;48.112;16.280;2023-05-07T11:02:04;5.50;;;3.85;;
54787;SDS011;59598;48.112;16.280;2023-05-07T11:04:36;4.63;;;3.17;;
54787;SDS011;59598;48.112;16.280;2023-05-07T11:07:21;6.40;;;4.07;;
54787;SDS011;59598;48.112;16.280;2023-05-07T11:09:59;4.47;;;3.13;;
54787;SDS011;59598;48.112;16.280;2023-05-07T11:15:12;4.85;;;3.42;;
54787;SDS011;59598;48.112;16.280;2023-05-07T11:17:54;4.07;;;3.30;;
54787;SDS011;59598;48.112;16.280;2023-05-07T11:26:11;4.87;;;3.47;;
54787;SDS011;59598;48.112;16.280;2023-05-07T11:28:43;5.03;;;3.80;;
54787;SDS011;59598;48.112;16.280;2023-05-07T11:31:14;4.53;;;3.65;;
54787;SDS011;59598;48.112;16.280;2023-05-07T11:36:34;11.40;;;4.65;;
54787;SDS011;59598;48.112;16.280;2023-05-07T11:39:19;5.90;;;3.95;;
54787;SDS011;59598;48.112;16.280;2023-05-07T11:42:02;5.97;;;4.68;;
54787;SDS011;59598;48.112;16.280;2023-05-07T11:44:43;4.68;;;3.50;;
54787;SDS011;59598;48.112;16.280;2023-05-07T11:47:17;4.72;;;3.80;;
54787;SDS011;59598;48.112;16.280;2023-05-07T11:49:50;5.68;;;4.47;;
54787;SDS011;59598;48.112;16.280;2023-05-07T11:52:24;5.15;;;3.83;;
54787;SDS011;59598;48.112;16.280;2023-05-07T11:55:06;6.75;;;4.60;;
54787;SDS011;59598;48.112;16.280;2023-05-07T11:57:50;4.57;;;3.97;;
54787;SDS011;59598;48.112;16.280;2023-05-07T12:00:21;3.88;;;3.35;;
54787;SDS011;59598;48.112;16.280;2023-05-07T12:02:53;11.63;;;4.60;;
54787;SDS011;59598;48.112;16.280;2023-05-07T12:05:28;7.38;;;3.88;;
54787;SDS011;59598;48.112;16.280;2023-05-07T12:08:00;6.15;;;3.90;;
54787;SDS011;59598;48.112;16.280;2023-05-07T12:10:34;4.85;;;3.75;;
54787;SDS011;59598;48.112;16.280;2023-05-07T12:13:13;5.18;;;3.83;;
54787;SDS011;59598;48.112;16.280;2023-05-07T12:15:55;4.10;;;3.67;;
54787;SDS011;59598;48.112;16.280;2023-05-07T12:18:30;6.82;;;4.43;;
54787;SDS011;59598;48.112;16.280;2023-05-07T12:21:07;5.30;;;3.80;;
54787;SDS011;59598;48.112;16.280;2023-05-07T12:23:39;6.15;;;4.22;;
54787;SDS011;59598;48.112;16.280;2023-05-07T12:26:11;4.60;;;3.70;;
54787;SDS011;59598;48.112;16.280;2023-05-07T12:28:43;4.68;;;3.47;;
54787;SDS011;59598;48.112;16.280;2023-05-07T12:36:24;6.50;;;4.40;;
54787;SDS011;59598;48.112;16.280;2023-05-07T12:39:08;7.55;;;4.63;;
54787;SDS011;59598;48.112;16.280;2023-05-07T12:41:57;6.18;;;3.95;;
54787;SDS011;59598;48.112;16.280;2023-05-07T12:44:32;6.03;;;3.92;;
54787;SDS011;59598;48.112;16.280;2023-05-07T12:47:09;6.85;;;4.63;;
54787;SDS011;59598;48.112;16.280;2023-05-07T12:49:46;4.63;;;3.92;;
54787;SDS011;59598;48.112;16.280;2023-05-07T12:52:21;5.63;;;4.07;;
54787;SDS011;59598;48.112;16.280;2023-05-07T12:54:55;6.32;;;3.88;;
54787;SDS011;59598;48.112;16.280;2023-05-07T12:57:31;5.10;;;3.58;;
54787;SDS011;59598;48.112;16.280;2023-05-07T13:03:31;5.88;;;4.00;;
54787;SDS011;59598;48.112;16.280;2023-05-07T13:06:05;4.22;;;3.75;;
54787;SDS011;59598;48.112;16.280;2023-05-07T13:08:43;4.57;;;3.75;;
54787;SDS011;59598;48.112;16.280;2023-05-07T13:11:14;5.45;;;3.50;;
54787;SDS011;59598;48.112;16.280;2023-05-07T13:13:47;4.85;;;3.78;;
54787;SDS011;59598;48.112;16.280;2023-05-07T13:16:19;4.53;;;3.50;;
54787;SDS011;59598;48.112;16.280;2023-05-07T13:18:50;4.63;;;3.42;;
54787;SDS011;59598;48.112;16.280;2023-05-07T13:21:23;3.88;;;3.33;;
54787;SDS011;59598;48.112;16.280;2023-05-07T13:23:55;4.45;;;3.42;;
54787;SDS011;59598;48.112;16.280;2023-05-07T13:26:26;5.20;;;3.15;;
54787;SDS011;59598;48.112;16.280;2023-05-07T13:28:58;3.85;;;2.97;;
54787;SDS011;59598;48.112;16.280;2023-05-07T13:31:29;6.60;;;4.22;;
54787;SDS011;59598;48.112;16.280;2023-05-07T13:34:03;4.50;;;3.13;;
54787;SDS011;59598;48.112;16.280;2023-05-07T13:36:35;5.50;;;3.65;;
54787;SDS011;59598;48.112;16.280;2023-05-07T13:39:10;6.20;;;4.40;;
54787;SDS011;59598;48.112;16.280;2023-05-07T13:41:46;3.85;;;3.45;;
54787;SDS011;59598;48.112;16.280;2023-05-07T13:44:18;5.20;;;3.85;;
54787;SDS011;59598;48.112;16.280;2023-05-07T13:46:54;4.22;;;3.67;;
54787;SDS011;59598;48.112;16.280;2023-05-07T13:49:27;5.53;;;3.00;;
54787;SDS011;59598;48.112;16.280;2023-05-07T13:51:59;5.70;;;3.33;;
54787;SDS011;59598;48.112;16.280;2023-05-07T13:54:31;4.07;;;3.33;;
54787;SDS011;59598;48.112;16.280;2023-05-07T13:57:06;5.45;;;3.72;;
54787;SDS011;59598;48.112;16.280;2023-05-07T13:59:37;3.75;;;3.03;;
54787;SDS011;59598;48.112;16.280;2023-05-07T14:02:11;3.22;;;2.75;;
54787;SDS011;59598;48.112;16.280;2023-05-07T14:04:46;3.83;;;2.78;;
54787;SDS011;59598;48.112;16.280;2023-05-07T14:07:19;5.28;;;3.30;;
54787;SDS011;59598;48.112;16.280;2023-05-07T14:09:51;3.90;;;3.10;;
54787;SDS011;59598;48.112;16.280;2023-05-07T14:12:23;2.85;;;2.60;;
54787;SDS011;59598;48.112;16.280;2023-05-07T14:14:58;3.78;;;2.85;;
54787;SDS011;59598;48.112;16.280;2023-05-07T14:20:03;3.80;;;2.92;;
54787;SDS011;59598;48.112;16.280;2023-05-07T14:22:39;4.10;;;2.55;;
54787;SDS011;59598;48.112;16.280;2023-05-07T14:25:11;3.40;;;2.75;;
54787;SDS011;59598;48.112;16.280;2023-05-07T14:27:43;4.72;;;2.90;;
54787;SDS011;59598;48.112;16.280;2023-05-07T14:30:15;3.53;;;3.05;;
54787;SDS011;59598;48.112;16.280;2023-05-07T14:32:47;3.00;;;2.65;;
54787;SDS011;59598;48.112;16.280;2023-05-07T14:35:19;3.25;;;2.75;;
54787;SDS011;59598;48.112;16.280;2023-05-07T14:37:54;2.95;;;2.63;;
54787;SDS011;59598;48.112;16.280;2023-05-07T14:40:26;2.83;;;2.45;;
54787;SDS011;59598;48.112;16.280;2023-05-07T14:42:57;3.95;;;2.92;;
54787;SDS011;59598;48.112;16.280;2023-05-07T14:45:29;2.70;;;2.40;;
54787;SDS011;59598;48.112;16.280;2023-05-07T14:48:01;3.53;;;2.58;;
54787;SDS011;59598;48.112;16.280;2023-05-07T14:50:35;3.92;;;2.60;;
54787;SDS011;59598;48.112;16.280;2023-05-07T14:53:06;3.08;;;2.67;;
54787;SDS011;59598;48.112;16.280;2023-05-07T14:55:38;3.75;;;2.55;;
54787;SDS011;59598;48.112;16.280;2023-05-07T14:58:13;3.67;;;2.53;;
54787;SDS011;59598;48.112;16.280;2023-05-07T15:00:44;6.50;;;2.80;;
54787;SDS011;59598;48.112;16.280;2023-05-07T15:03:16;2.83;;;2.58;;
54787;SDS011;59598;48.112;16.280;2023-05-07T15:05:48;2.88;;;2.67;;
54787;SDS011;59598;48.112;16.280;2023-05-07T15:08:22;3.40;;;2.60;;
54787;SDS011;59598;48.112;16.280;2023-05-07T15:10:53;3.22;;;2.60;;
54787;SDS011;59598;48.112;16.280;2023-05-07T15:13:28;2.30;;;2.10;;
54787;SDS011;59598;48.112;16.280;2023-05-07T15:16:00;2.33;;;2.13;;
54787;SDS011;59598;48.112;16.280;2023-05-07T15:18:34;3.83;;;2.55;;
54787;SDS011;59598;48.112;16.280;2023-05-07T15:21:06;3.45;;;2.80;;
54787;SDS011;59598;48.112;16.280;2023-05-07T15:23:39;2.40;;;2.20;;
54787;SDS011;59598;48.112;16.280;2023-05-07T15:26:12;2.58;;;2.33;;
54787;SDS011;59598;48.112;16.280;2023-05-07T15:28:43;3.63;;;2.78;;
54787;SDS011;59598;48.112;16.280;2023-05-07T15:31:15;3.20;;;2.47;;
54787;SDS011;59598;48.112;16.280;2023-05-07T15:33:47;2.33;;;2.13;;
54787;SDS011;59598;48.112;16.280;2023-05-07T15:36:22;2.78;;;2.17;;
54787;SDS011;59598;48.112;16.280;2023-05-07T15:38:59;3.85;;;2.50;;
54787;SDS011;59598;48.112;16.280;2023-05-07T15:41:32;3.13;;;2.33;;
54787;SDS011;59598;48.112;16.280;2023-05-07T15:44:04;3.13;;;2.30;;
54787;SDS011;59598;48.112;16.280;2023-05-07T15:49:12;2.75;;;2.30;;
54787;SDS011;59598;48.112;16.280;2023-05-07T15:54:21;2.42;;;2.22;;
54787;SDS011;59598;48.112;16.280;2023-05-07T15:56:53;2.08;;;1.88;;
54787;SDS011;59598;48.112;16.280;2023-05-07T15:59:25;3.75;;;2.20;;
54787;SDS011;59598;48.112;16.280;2023-05-07T16:01:57;3.10;;;2.00;;
54787;SDS011;59598;48.112;16.280;2023-05-07T16:04:30;2.20;;;2.00;;
54787;SDS011;59598;48.112;16.280;2023-05-07T16:07:05;2.13;;;1.75;;
54787;SDS011;59598;48.112;16.280;2023-05-07T16:09:36;2.15;;;1.90;;
54787;SDS011;59598;48.112;16.280;2023-05-07T16:12:08;2.10;;;1.77;;
54787;SDS011;59598;48.112;16.280;2023-05-07T16:14:43;2.63;;;2.42;;
54787;SDS011;59598;48.112;16.280;2023-05-07T16:17:21;2.20;;;2.00;;